createdAt,value
2017-11-18T00:00:15.274Z,733.50
2017-11-18T00:02:44.411Z,761.92
2017-11-18T00:05:13.564Z,804.25
2017-11-18T00:07:42.808Z,770.08
2017-11-18T00:10:12.284Z,754.20
2017-11-18T00:12:41.408Z,749.92
2017-11-18T00:15:10.616Z,755.15
2017-11-18T00:17:39.742Z,743.90
2017-11-18T00:20:08.933Z,730.25
2017-11-18T00:22:38.401Z,718.02
2017-11-18T00:25:07.429Z,704.15
2017-11-18T00:27:36.628Z,728.73
2017-11-18T00:30:05.938Z,699.02
2017-11-18T00:32:35.281Z,719.62
2017-11-18T00:35:04.412Z,709.08
2017-11-18T00:37:33.620Z,702.13
2017-11-18T00:40:03.333Z,696.33
2017-11-18T00:42:32.533Z,702.65
2017-11-18T00:45:03.265Z,708.42
2017-11-18T00:47:32.417Z,752.78
2017-11-18T00:50:01.765Z,724.67
2017-11-18T00:52:31.250Z,750.20
2017-11-18T00:55:00.428Z,740.30
2017-11-18T00:57:29.539Z,726.55
2017-11-18T00:59:58.650Z,771.50
2017-11-18T01:02:27.934Z,775.98
2017-11-18T01:04:57.373Z,778.02
2017-11-18T01:07:26.593Z,790.00
2017-11-18T01:09:55.925Z,765.20
2017-11-18T01:12:25.335Z,737.25
2017-11-18T01:14:54.679Z,764.65
2017-11-18T01:17:24.061Z,756.00
2017-11-18T01:19:53.537Z,745.33
2017-11-18T01:22:22.696Z,751.15
2017-11-18T01:24:51.965Z,732.70
2017-11-18T01:27:21.352Z,726.95
2017-11-18T01:29:50.580Z,713.20
2017-11-18T01:32:19.681Z,724.17
2017-11-18T01:34:48.942Z,722.10
2017-11-18T01:37:18.380Z,716.12
2017-11-18T01:39:47.550Z,705.45
2017-11-18T01:42:16.669Z,707.77
2017-11-18T01:44:45.941Z,729.33
2017-11-18T01:47:15.297Z,765.88
2017-11-18T01:49:44.408Z,742.27
2017-11-18T01:52:13.562Z,770.77
2017-11-18T01:54:42.629Z,774.33
2017-11-18T01:57:11.940Z,752.47
2017-11-18T01:59:41.366Z,749.52
2017-11-18T02:02:12.555Z,742.92
2017-11-18T02:04:41.649Z,734.22
2017-11-18T02:07:10.998Z,728.92
2017-11-18T02:09:40.299Z,728.08
2017-11-18T02:12:09.514Z,773.70
2017-11-18T02:14:38.668Z,775.25
2017-11-18T02:17:08.229Z,794.13
2017-11-18T02:19:37.471Z,781.73
2017-11-18T02:22:07.428Z,747.08
2017-11-18T02:24:36.696Z,762.60
2017-11-18T02:27:06.018Z,778.00
2017-11-18T02:29:35.441Z,760.42
2017-11-18T02:32:04.786Z,723.60
2017-11-18T02:37:02.507Z,739.48
2017-11-18T02:39:31.625Z,739.95
2017-11-18T02:42:01.252Z,716.35
2017-11-18T02:44:30.444Z,715.88
2017-11-18T02:46:59.561Z,725.75
2017-11-18T02:49:29.196Z,698.88
2017-11-18T02:51:58.485Z,735.92
2017-11-18T02:54:27.618Z,717.40
2017-11-18T02:56:57.284Z,703.40
2017-11-18T02:59:26.656Z,704.58
2017-11-18T03:01:56.280Z,692.17
2017-11-18T03:04:25.426Z,682.77
2017-11-18T03:06:54.642Z,677.97
2017-11-18T03:09:24.345Z,708.67
2017-11-18T03:11:53.470Z,678.30
2017-11-18T03:14:22.587Z,673.90
2017-11-18T03:16:51.937Z,690.98
2017-11-18T03:19:21.292Z,667.98
2017-11-18T03:21:50.396Z,675.48
2017-11-18T03:24:19.555Z,664.83
2017-11-18T03:26:48.744Z,656.50
2017-11-18T03:29:18.245Z,660.37
2017-11-18T03:31:47.417Z,660.70
2017-11-18T03:34:16.560Z,664.48
2017-11-18T03:36:45.757Z,638.12
2017-11-18T03:39:15.290Z,642.40
2017-11-18T03:41:44.561Z,653.52
2017-11-18T03:44:14.750Z,652.15
2017-11-18T03:46:44.280Z,641.90
2017-11-18T03:49:14.469Z,632.83
2017-11-18T03:51:43.590Z,651.60
2017-11-18T03:54:12.645Z,654.77
2017-11-18T03:56:41.938Z,650.12
2017-11-18T03:59:11.357Z,633.02
2017-11-18T04:01:40.625Z,632.05
2017-11-18T04:04:09.937Z,614.55
2017-11-18T04:06:39.413Z,641.02
2017-11-18T04:09:08.584Z,620.42
2017-11-18T04:11:40.291Z,615.73
2017-11-18T04:14:09.420Z,609.75
2017-11-18T04:16:38.545Z,602.05
2017-11-18T04:19:07.740Z,603.70
2017-11-18T04:21:37.289Z,620.98
2017-11-18T04:24:06.405Z,606.47
2017-11-18T04:26:35.549Z,593.75
2017-11-18T04:29:04.733Z,586.17
2017-11-18T04:31:34.319Z,582.60
2017-11-18T04:34:03.429Z,589.92
2017-11-18T04:36:32.620Z,592.48
2017-11-18T04:39:01.937Z,567.55
2017-11-18T04:41:31.343Z,597.65
2017-11-18T04:44:00.440Z,584.48
2017-11-18T04:46:29.620Z,586.17
2017-11-18T04:48:59.290Z,594.23
2017-11-18T04:51:28.436Z,564.10
2017-11-18T04:53:57.522Z,559.65
2017-11-18T04:56:26.728Z,577.42
2017-11-18T04:58:55.941Z,571.00
2017-11-18T05:01:25.286Z,559.00
2017-11-18T05:03:54.434Z,550.50
2017-11-18T05:06:23.561Z,524.30
2017-11-18T05:08:52.662Z,535.00
2017-11-18T05:11:22.018Z,525.95
2017-11-18T05:13:51.404Z,509.25
2017-11-18T05:16:20.576Z,513.22
2017-11-18T05:18:49.633Z,490.45
2017-11-18T05:21:19.456Z,484.27
2017-11-18T05:23:48.526Z,475.27
2017-11-18T05:26:17.646Z,466.35
2017-11-18T05:28:47.282Z,468.65
2017-11-18T05:31:16.421Z,479.27
2017-11-18T05:33:45.721Z,489.23
2017-11-18T05:36:15.300Z,469.05
2017-11-18T05:38:44.413Z,488.20
2017-11-18T05:41:13.537Z,472.87
2017-11-18T05:43:42.737Z,473.47
2017-11-18T05:46:12.292Z,474.80
2017-11-18T05:48:41.429Z,472.25
2017-11-18T05:51:10.627Z,468.00
2017-11-18T05:53:39.954Z,454.25
2017-11-18T05:56:09.255Z,468.15
2017-11-18T05:58:38.420Z,455.52
2017-11-18T06:01:07.725Z,471.65
2017-11-18T06:03:37.025Z,464.48
2017-11-18T06:06:06.438Z,450.85
2017-11-18T06:08:35.725Z,462.30
2017-11-18T06:11:05.029Z,441.95
2017-11-18T06:13:34.413Z,431.05
2017-11-18T06:16:03.461Z,445.02
2017-11-18T06:18:32.752Z,439.05
2017-11-18T06:21:02.382Z,438.05
2017-11-18T06:23:31.556Z,422.93
2017-11-18T06:26:00.753Z,441.82
2017-11-18T06:28:30.285Z,455.52
2017-11-18T06:30:59.445Z,450.42
2017-11-18T06:33:28.562Z,438.35
2017-11-18T06:35:57.726Z,444.15
2017-11-18T06:38:27.029Z,438.60
2017-11-18T06:40:56.407Z,434.00
2017-11-18T06:43:25.581Z,415.80
2017-11-18T06:45:54.646Z,428.02
2017-11-18T06:48:24.029Z,427.40
2017-11-18T06:50:53.485Z,425.65
2017-11-18T06:53:22.636Z,433.68
2017-11-18T06:55:51.951Z,420.75
2017-11-18T06:58:21.421Z,420.60
2017-11-18T07:00:50.589Z,425.25
2017-11-18T07:03:19.765Z,408.15
2017-11-18T07:05:49.255Z,415.73
2017-11-18T07:08:18.428Z,419.55
2017-11-18T07:10:47.580Z,400.60
2017-11-18T07:15:34.415Z,411.20
2017-11-18T07:18:03.536Z,411.00
2017-11-18T07:20:32.600Z,421.72
2017-11-18T07:23:01.675Z,422.93
2017-11-18T07:25:30.945Z,408.30
2017-11-18T07:28:06.704Z,403.30
2017-11-18T07:30:35.996Z,411.10
2017-11-18T07:33:05.400Z,394.60
2017-11-18T07:35:34.435Z,408.42
2017-11-18T07:38:03.539Z,399.25
2017-11-18T07:40:32.685Z,402.55
2017-11-18T07:43:02.295Z,412.25
2017-11-18T07:45:31.430Z,394.35
2017-11-18T07:48:00.539Z,389.45
2017-11-18T07:50:29.714Z,397.02
2017-11-18T07:52:59.259Z,390.55
2017-11-18T07:55:28.420Z,382.73
2017-11-18T07:57:57.632Z,395.60
2017-11-18T08:00:26.940Z,373.02
2017-11-18T08:02:56.252Z,393.65
2017-11-18T08:05:25.441Z,394.70
2017-11-18T08:07:54.508Z,369.85
2017-11-18T08:10:23.543Z,386.73
2017-11-18T08:12:52.941Z,379.45
2017-11-18T08:15:22.244Z,401.57
2017-11-18T08:17:51.499Z,417.75
2017-11-18T08:20:20.716Z,438.98
2017-11-18T08:22:49.984Z,447.00
2017-11-18T08:25:19.370Z,458.98
2017-11-18T08:28:56.735Z,439.87
2017-11-18T08:31:26.266Z,429.85
2017-11-18T08:33:55.425Z,432.32
2017-11-18T08:36:33.392Z,416.55
2017-11-18T08:39:02.498Z,417.77
2017-11-18T08:41:31.645Z,414.30
2017-11-18T08:44:01.493Z,398.35
2017-11-18T08:46:31.481Z,402.70
2017-11-18T08:49:00.648Z,401.65
2017-11-18T08:51:30.287Z,410.05
2017-11-18T08:53:59.441Z,430.73
2017-11-18T08:56:30.524Z,488.12
2017-11-18T08:58:59.837Z,564.20
2017-11-18T09:01:29.471Z,562.80
2017-11-18T09:03:58.548Z,582.00
2017-11-18T09:06:28.277Z,522.08
2017-11-18T09:08:58.549Z,450.75
2017-11-18T09:11:28.275Z,432.23
2017-11-18T09:13:57.466Z,395.65
2017-11-18T09:16:26.649Z,348.50
2017-11-18T09:18:55.944Z,327.57
2017-11-18T09:21:25.320Z,326.00
2017-11-18T09:23:54.505Z,364.38
2017-11-18T09:26:23.541Z,366.52
2017-11-18T09:28:52.704Z,371.75
2017-11-18T09:31:21.943Z,370.00
2017-11-18T09:33:51.284Z,523.58
2017-11-18T09:36:20.828Z,422.73
2017-11-18T09:38:50.409Z,504.70
2017-11-18T09:41:19.630Z,615.52
2017-11-18T09:43:48.989Z,505.10
2017-11-18T09:48:41.064Z,509.22
2017-11-18T09:51:45.536Z,498.73
2017-11-18T09:54:34.581Z,448.25
2017-11-18T09:58:41.793Z,444.52
2017-11-18T10:03:40.425Z,486.92
2017-11-18T10:06:09.660Z,494.88
2017-11-18T10:10:39.417Z,575.60
2017-11-18T10:13:08.532Z,585.42
2017-11-18T10:15:37.953Z,581.92
2017-11-18T10:18:07.392Z,538.80
2017-11-18T10:20:36.460Z,530.03
2017-11-18T10:23:05.520Z,550.53
2017-11-18T10:25:34.552Z,521.77
2017-11-18T10:28:03.888Z,513.87
2017-11-18T10:30:33.253Z,533.67
2017-11-18T10:33:02.417Z,481.40
2017-11-18T10:35:31.468Z,482.58
2017-11-18T10:38:00.524Z,483.02
2017-11-18T10:40:29.609Z,475.85
2017-11-18T10:42:58.749Z,474.65
2017-11-18T10:45:28.300Z,463.20
2017-11-18T10:47:57.417Z,484.18
2017-11-18T10:50:26.653Z,478.50
2017-11-18T10:52:56.173Z,487.35
2017-11-18T10:55:25.433Z,477.88
2017-11-18T10:57:54.566Z,450.18
2017-11-18T11:00:23.763Z,472.17
2017-11-18T11:02:53.300Z,446.77
2017-11-18T11:05:22.505Z,439.43
2017-11-18T11:07:51.546Z,457.35
2017-11-18T11:10:20.629Z,438.05
2017-11-18T11:12:50.271Z,454.02
2017-11-18T11:15:19.427Z,463.87
2017-11-18T11:17:48.557Z,456.30
2017-11-18T11:23:18.275Z,721.95
2017-11-18T11:28:10.560Z,682.42
2017-11-18T11:30:39.997Z,697.65
2017-11-18T11:33:09.326Z,623.90
2017-11-18T11:35:38.601Z,634.17
2017-11-18T11:38:07.698Z,594.88
2017-11-18T11:40:36.951Z,570.25
2017-11-18T11:43:06.592Z,560.97
2017-11-18T11:45:35.952Z,560.37
2017-11-18T11:48:05.436Z,736.10
2017-11-18T11:50:34.692Z,684.90
2017-11-18T11:53:03.939Z,780.22
2017-11-18T11:57:09.292Z,760.73
2017-11-18T11:59:38.451Z,769.45
2017-11-18T12:02:07.549Z,727.47
2017-11-18T12:04:36.708Z,688.37
2017-11-18T12:07:05.985Z,670.80
2017-11-18T12:09:35.344Z,667.83
2017-11-18T12:12:04.491Z,629.30
2017-11-18T12:14:33.556Z,646.83
2017-11-18T12:17:02.937Z,695.10
2017-11-18T12:19:32.943Z,710.85
2017-11-18T12:22:02.296Z,818.90
2017-11-18T12:24:31.433Z,804.15
2017-11-18T12:27:00.540Z,773.80
2017-11-18T12:29:29.760Z,751.60
2017-11-18T12:34:41.495Z,740.10
2017-11-18T12:37:10.947Z,775.30
2017-11-18T12:39:40.410Z,813.08
2017-11-18T12:42:09.553Z,830.90
2017-11-18T12:44:40.245Z,847.35
2017-11-18T12:47:09.429Z,818.45
2017-11-18T12:49:38.967Z,800.50
2017-11-18T12:52:08.300Z,827.28
2017-11-18T12:54:37.433Z,918.17
2017-11-18T12:57:06.613Z,905.60
2017-11-18T12:59:36.253Z,942.98
2017-11-18T13:02:05.439Z,907.85
2017-11-18T13:04:34.679Z,868.73
2017-11-18T13:07:03.954Z,861.03
2017-11-18T13:09:33.292Z,820.75
2017-11-18T13:12:02.568Z,826.75
2017-11-18T13:14:31.946Z,802.88
2017-11-18T13:17:01.291Z,773.13
2017-11-18T13:19:30.426Z,780.30
2017-11-18T13:21:59.525Z,765.12
2017-11-18T13:24:28.527Z,769.45
2017-11-18T13:26:58.056Z,785.78
2017-11-18T13:29:27.519Z,764.58
2017-11-18T13:31:56.584Z,804.57
2017-11-18T13:34:25.953Z,852.55
2017-11-18T13:36:55.326Z,853.22
2017-11-18T13:39:24.598Z,918.25
2017-11-18T13:41:53.715Z,877.40
2017-11-18T13:44:23.175Z,868.95
2017-11-18T13:46:52.429Z,846.72
2017-11-18T13:49:21.676Z,827.97
2017-11-18T13:51:51.053Z,829.67
2017-11-18T13:54:20.473Z,814.00
2017-11-18T13:56:49.586Z,797.75
2017-11-18T13:59:19.251Z,801.90
2017-11-18T14:01:48.433Z,792.70
2017-11-18T14:04:17.555Z,784.42
2017-11-18T14:06:46.733Z,785.42
2017-11-18T14:09:16.256Z,772.08
2017-11-18T14:11:45.468Z,776.50
2017-11-18T14:15:05.403Z,751.22
2017-11-18T14:17:34.721Z,762.92
2017-11-18T14:20:04.358Z,738.10
2017-11-18T14:22:33.592Z,740.95
2017-11-18T14:25:02.682Z,742.08
2017-11-18T14:27:32.051Z,742.53
2017-11-18T14:30:03.229Z,741.55
2017-11-18T14:32:32.525Z,770.25
2017-11-18T14:35:01.617Z,853.82
2017-11-18T14:37:30.737Z,928.10
2017-11-18T14:40:00.240Z,603.00
2017-11-18T14:45:00.433Z,319.02
2017-11-18T14:47:29.581Z,261.27
2017-11-18T14:49:58.949Z,265.75
2017-11-18T14:52:28.305Z,238.12
2017-11-18T14:54:57.461Z,332.50
2017-11-18T14:57:26.952Z,717.48
2017-11-18T14:59:56.482Z,287.95
2017-11-18T15:02:25.757Z,260.80
2017-11-18T15:04:55.393Z,226.75
2017-11-18T15:07:25.065Z,194.52
2017-11-18T15:09:54.581Z,193.25
2017-11-18T15:12:24.315Z,194.65
2017-11-18T15:14:53.545Z,182.97
2017-11-18T15:17:26.630Z,195.60
2017-11-18T15:19:59.973Z,188.12
2017-11-18T15:22:29.404Z,190.70
2017-11-18T15:25:02.529Z,192.18
2017-11-18T15:27:35.653Z,176.97
2017-11-18T15:30:05.433Z,182.37
2017-11-18T15:32:35.173Z,175.95
2017-11-18T15:35:04.766Z,180.48
2017-11-18T15:40:03.289Z,171.18
2017-11-18T15:42:32.490Z,173.70
2017-11-18T15:45:01.707Z,175.45
2017-11-18T15:47:31.431Z,187.57
2017-11-18T15:50:02.334Z,179.85
2017-11-18T15:52:32.293Z,177.25
2017-11-18T15:55:04.244Z,286.40
2017-11-18T15:57:33.489Z,249.60
2017-11-18T16:00:02.644Z,461.10
2017-11-18T16:02:32.410Z,463.55
2017-11-18T16:05:01.565Z,457.95
2017-11-18T16:07:30.937Z,393.48
2017-11-18T16:10:00.433Z,302.90
2017-11-18T16:12:29.751Z,372.85
2017-11-18T16:14:59.288Z,420.60
2017-11-18T16:17:28.658Z,507.88
2017-11-18T16:19:57.936Z,605.15
2017-11-18T16:22:27.287Z,461.58
2017-11-18T16:24:56.477Z,447.90
2017-11-18T16:27:25.589Z,456.07
2017-11-18T16:29:55.042Z,412.77
2017-11-18T16:32:24.477Z,427.40
2017-11-18T16:34:53.826Z,408.90
2017-11-18T16:37:23.228Z,418.82
2017-11-18T16:39:52.509Z,400.22
2017-11-18T16:42:21.636Z,396.23
2017-11-18T16:44:50.938Z,389.05
2017-11-18T16:47:20.374Z,376.45
2017-11-18T16:49:49.471Z,381.20
2017-11-18T16:52:19.241Z,396.70
2017-11-18T16:54:48.404Z,443.10
2017-11-18T16:57:17.535Z,670.27
2017-11-18T16:59:47.020Z,472.13
2017-11-18T17:02:16.389Z,448.47
2017-11-18T17:04:45.608Z,445.08
2017-11-18T17:07:14.949Z,436.23
2017-11-18T17:09:44.297Z,444.88
2017-11-18T17:12:13.420Z,432.52
2017-11-18T17:16:51.508Z,409.35
2017-11-18T17:19:20.682Z,406.25
2017-11-18T17:21:49.971Z,403.75
2017-11-18T17:24:20.956Z,485.63
2017-11-18T17:26:50.398Z,654.70
2017-11-18T17:29:19.527Z,713.55
2017-11-18T17:31:49.202Z,628.85
2017-11-18T17:34:18.435Z,608.95
2017-11-18T17:36:47.799Z,566.02
2017-11-18T17:41:45.465Z,513.98
2017-11-18T17:44:14.621Z,530.63
2017-11-18T17:46:44.047Z,510.35
2017-11-18T17:49:13.629Z,496.72
2017-11-18T17:51:43.286Z,506.35
2017-11-18T17:54:12.461Z,475.72
2017-11-18T17:56:41.656Z,459.48
2017-11-18T17:59:11.013Z,466.88
2017-11-18T18:01:40.458Z,460.90
2017-11-18T18:07:09.940Z,450.07
2017-11-18T18:09:39.302Z,451.37
2017-11-18T18:12:08.473Z,507.60
2017-11-18T18:14:37.674Z,534.40
2017-11-18T18:18:46.698Z,684.90
2017-11-18T18:21:15.983Z,690.42
2017-11-18T18:23:45.289Z,634.98
2017-11-18T18:26:14.426Z,630.83
2017-11-18T18:28:43.707Z,608.58
2017-11-18T18:31:13.069Z,631.83
2017-11-18T18:33:42.500Z,667.27
2017-11-18T18:36:11.651Z,707.27
2017-11-18T18:38:41.228Z,760.92
2017-11-18T18:41:10.379Z,747.95
2017-11-18T18:43:39.476Z,747.15
2017-11-18T18:46:08.597Z,731.37
2017-11-18T18:48:38.225Z,684.25
2017-11-18T18:51:07.411Z,681.52
2017-11-18T18:53:36.641Z,670.83
2017-11-18T18:56:06.275Z,644.80
2017-11-18T18:58:35.443Z,617.15
2017-11-18T19:01:04.614Z,613.00
2017-11-18T19:03:33.937Z,601.35
2017-11-18T19:10:52.189Z,571.85
2017-11-18T19:13:21.431Z,576.20
2017-11-18T19:15:50.947Z,568.05
2017-11-18T19:18:20.651Z,565.35
2017-11-18T19:20:49.941Z,565.20
2017-11-18T19:23:19.424Z,543.85
2017-11-18T19:25:48.761Z,548.35
2017-11-18T19:28:18.279Z,560.15
2017-11-18T19:32:19.389Z,746.95
2017-11-18T19:34:48.466Z,736.67
2017-11-18T19:37:17.679Z,697.85
2017-11-18T19:39:47.304Z,681.75
2017-11-18T19:42:16.453Z,683.25
2017-11-18T19:44:45.637Z,911.30
2017-11-18T19:47:15.053Z,969.82
2017-11-18T19:49:44.497Z,877.22
2017-11-18T19:52:14.460Z,811.77
2017-11-18T19:57:30.947Z,768.67
2017-11-18T20:00:00.410Z,732.85
2017-11-18T20:02:29.630Z,724.80
2017-11-18T20:04:59.030Z,682.95
2017-11-18T20:07:28.397Z,701.10
2017-11-18T20:13:48.741Z,685.17
2017-11-18T20:16:18.366Z,679.12
2017-11-18T20:18:47.629Z,680.48
2017-11-18T20:21:16.946Z,669.47
2017-11-18T20:23:46.353Z,661.92
2017-11-18T20:26:15.441Z,658.48
2017-11-18T20:28:45.253Z,659.98
2017-11-18T20:31:14.483Z,645.85
2017-11-18T20:33:43.602Z,641.75
2017-11-18T20:36:12.959Z,659.20
2017-11-18T20:38:42.357Z,622.17
2017-11-18T20:41:11.569Z,643.97
2017-11-18T20:43:41.410Z,651.33
2017-11-18T20:46:10.500Z,635.58
2017-11-18T20:48:39.621Z,646.25
2017-11-18T20:51:08.944Z,634.20
2017-11-18T20:53:38.288Z,631.45
2017-11-18T20:56:07.461Z,622.67
2017-11-18T20:58:40.363Z,615.60
2017-11-18T21:01:09.641Z,624.60
2017-11-18T21:03:40.813Z,617.05
2017-11-18T21:06:11.005Z,597.02
2017-11-18T21:08:40.528Z,619.10
2017-11-18T21:11:09.570Z,592.37
2017-11-18T21:13:39.172Z,591.20
2017-11-18T21:16:09.485Z,595.62
2017-11-18T21:18:38.551Z,582.17
2017-11-18T21:21:07.717Z,589.70
2017-11-18T21:23:37.020Z,599.80
2017-11-18T21:26:06.445Z,580.37
2017-11-18T21:28:35.543Z,733.05
2017-11-18T21:31:07.575Z,725.12
2017-11-18T21:33:37.604Z,765.50
2017-11-18T21:36:07.052Z,757.58
2017-11-18T21:38:36.483Z,720.55
2017-11-18T21:41:05.664Z,692.22
2017-11-18T21:43:35.245Z,674.50
2017-11-18T21:46:04.444Z,676.75
2017-11-18T21:48:33.612Z,661.38
2017-11-18T21:51:04.836Z,662.67
2017-11-18T21:53:34.463Z,654.92
2017-11-18T21:56:03.626Z,649.65
2017-11-18T21:58:33.285Z,633.80
2017-11-18T22:01:02.432Z,609.48
2017-11-18T22:03:31.534Z,623.15
2017-11-18T22:06:00.683Z,624.50
2017-11-18T22:08:30.064Z,592.33
2017-11-18T22:10:59.462Z,607.30
2017-11-18T22:13:28.590Z,612.83
2017-11-18T22:15:57.874Z,599.38
2017-11-18T22:18:27.465Z,563.27
2017-11-18T22:20:56.533Z,598.47
2017-11-18T22:23:25.676Z,577.10
2017-11-18T22:25:55.350Z,592.87
2017-11-18T22:28:24.595Z,629.10
2017-11-18T22:30:53.761Z,767.72
2017-11-18T22:33:23.404Z,843.58
2017-11-18T22:35:52.504Z,868.77
2017-11-18T22:38:21.711Z,750.70
2017-11-18T22:40:51.272Z,767.00
2017-11-18T22:43:22.605Z,742.90
2017-11-18T22:45:51.834Z,723.60
2017-11-18T22:48:21.294Z,694.73
2017-11-18T22:50:50.568Z,748.95
2017-11-18T22:53:19.725Z,825.83
2017-11-18T22:55:49.256Z,824.40
2017-11-18T22:58:18.436Z,870.85
2017-11-18T23:00:47.542Z,852.52
2017-11-18T23:03:16.645Z,802.33
2017-11-18T23:05:45.962Z,775.05
2017-11-18T23:08:17.546Z,771.60
2017-11-18T23:10:46.733Z,760.20
2017-11-18T23:13:16.269Z,737.85
2017-11-18T23:15:45.429Z,745.05
2017-11-18T23:18:14.692Z,718.15
2017-11-18T23:20:43.946Z,729.33
2017-11-18T23:23:13.249Z,723.30
2017-11-18T23:25:43.677Z,702.70
2017-11-18T23:28:17.661Z,710.23
2017-11-18T23:30:47.042Z,821.42
2017-11-18T23:33:16.404Z,857.05
2017-11-18T23:35:45.616Z,861.88
2017-11-18T23:38:15.028Z,857.13
2017-11-18T23:40:44.433Z,821.18
2017-11-18T23:43:13.545Z,806.00
2017-11-18T23:45:42.727Z,806.83
2017-11-18T23:48:12.028Z,831.72
2017-11-18T23:50:41.355Z,898.60
2017-11-18T23:53:10.458Z,893.07
2017-11-18T23:55:39.949Z,842.10
2017-11-18T23:58:09.450Z,859.73
